createdAt,value
2023-05-19T00:01:54.469Z,99139.00
2023-05-19T00:04:21.080Z,99141.78
2023-05-19T00:06:50.567Z,99141.00
2023-05-19T00:09:17.252Z,99135.41
2023-05-19T00:11:43.834Z,99137.28
2023-05-19T00:14:10.540Z,99128.06
2023-05-19T00:16:37.379Z,99133.53
2023-05-19T00:19:05.149Z,99116.06
2023-05-19T00:21:32.115Z,99131.31
2023-05-19T00:23:58.704Z,99126.53
2023-05-19T00:26:25.467Z,99131.75
2023-05-19T00:28:53.110Z,99122.69
2023-05-19T00:31:19.597Z,99125.09
2023-05-19T00:33:45.968Z,99117.03
2023-05-19T00:36:12.833Z,99122.47
2023-05-19T00:38:39.682Z,99118.25
2023-05-19T00:41:06.960Z,99116.06
2023-05-19T00:43:33.515Z,99115.84
2023-05-19T00:46:00.030Z,99116.69
2023-05-19T00:48:26.777Z,99118.72
2023-05-19T00:50:55.203Z,99105.00
2023-05-19T00:53:22.088Z,99110.72
2023-05-19T00:55:48.767Z,99109.59
2023-05-19T00:58:15.390Z,99105.44
2023-05-19T01:00:42.948Z,99106.78
2023-05-19T01:03:09.912Z,99109.59
2023-05-19T01:05:43.163Z,99116.91
2023-05-19T01:08:09.526Z,99110.72
2023-05-19T01:10:37.542Z,99093.34
2023-05-19T01:13:04.746Z,99108.16
2023-05-19T01:15:34.188Z,99114.13
2023-05-19T01:18:39.035Z,99121.19
2023-05-19T01:21:48.874Z,99117.19
2023-05-19T01:24:44.600Z,99108.91
2023-05-19T01:27:24.041Z,99109.91
2023-05-19T01:30:24.368Z,99108.91
2023-05-19T01:32:53.787Z,99108.78
2023-05-19T01:35:23.167Z,99105.28
2023-05-19T01:37:51.984Z,99099.66
2023-05-19T01:40:19.649Z,99097.88
2023-05-19T01:42:46.611Z,99102.78
2023-05-19T01:45:13.048Z,99094.31
2023-05-19T01:47:43.294Z,99111.13
2023-05-19T01:50:10.122Z,99103.41
2023-05-19T01:52:36.539Z,99112.03
2023-05-19T01:55:02.961Z,99112.38
2023-05-19T01:57:32.011Z,99114.47
2023-05-19T02:00:15.711Z,99108.25
2023-05-19T02:03:09.122Z,99109.16
2023-05-19T02:05:46.044Z,99106.50
2023-05-19T02:08:23.389Z,99095.91
2023-05-19T02:10:58.330Z,99088.28
2023-05-19T02:13:29.100Z,99089.22
2023-05-19T02:15:59.907Z,99095.31
2023-05-19T02:18:26.553Z,99099.09
2023-05-19T02:20:52.935Z,99093.19
2023-05-19T02:23:19.291Z,99091.22
2023-05-19T02:25:45.663Z,99099.63
2023-05-19T02:28:12.033Z,99094.53
2023-05-19T02:30:38.429Z,99096.78
2023-05-19T02:33:04.810Z,99086.69
2023-05-19T02:35:31.202Z,99072.97
2023-05-19T02:37:57.581Z,99089.03
2023-05-19T02:40:23.975Z,99074.16
2023-05-19T02:42:50.379Z,99084.53
2023-05-19T02:45:16.890Z,99087.00
2023-05-19T02:47:43.320Z,99060.56
2023-05-19T02:50:09.803Z,99066.66
2023-05-19T02:52:36.247Z,99083.41
2023-05-19T02:55:02.602Z,99065.41
2023-05-19T02:57:29.777Z,99076.06
2023-05-19T02:59:56.144Z,99076.81
2023-05-19T03:02:22.570Z,99088.59
2023-05-19T03:04:48.950Z,99073.84
2023-05-19T03:07:15.399Z,99076.06
2023-05-19T03:09:41.828Z,99077.56
2023-05-19T03:12:08.276Z,99091.53
2023-05-19T03:14:35.312Z,99081.34
2023-05-19T03:17:01.757Z,99073.84
2023-05-19T03:19:28.187Z,99070.91
2023-05-19T03:21:54.584Z,99074.16
2023-05-19T03:24:20.959Z,99071.84
2023-05-19T03:26:47.374Z,99077.78
2023-05-19T03:29:13.729Z,99072.69
2023-05-19T03:31:40.102Z,99068.03
2023-05-19T03:34:06.499Z,99068.94
2023-05-19T03:36:32.913Z,99079.88
2023-05-19T03:38:59.319Z,99072.94
2023-05-19T03:41:25.718Z,99084.06
2023-05-19T03:43:52.094Z,99064.34
2023-05-19T03:46:18.652Z,99081.59
2023-05-19T03:48:45.099Z,99083.78
2023-05-19T03:51:11.479Z,99061.84
2023-05-19T03:53:37.863Z,99075.81
2023-05-19T03:56:04.417Z,99083.78
2023-05-19T03:58:30.779Z,99085.66
2023-05-19T04:00:57.161Z,99081.16
2023-05-19T04:03:23.801Z,99086.22
2023-05-19T04:05:50.415Z,99091.53
2023-05-19T04:08:16.798Z,99083.56
2023-05-19T04:10:43.184Z,99090.06
2023-05-19T04:13:09.574Z,99086.84
2023-05-19T04:15:36.044Z,99079.44
2023-05-19T04:18:02.505Z,99094.09
2023-05-19T04:20:29.153Z,99083.34
2023-05-19T04:22:55.613Z,99081.78
2023-05-19T04:25:21.982Z,99079.47
2023-05-19T04:27:48.366Z,99073.28
2023-05-19T04:30:16.636Z,99091.94
2023-05-19T04:32:44.246Z,99097.00
2023-05-19T04:35:10.622Z,99100.59
2023-05-19T04:37:37.031Z,99103.06
2023-05-19T04:40:03.553Z,99108.03
2023-05-19T04:42:29.936Z,99102.56
2023-05-19T04:44:56.319Z,99093.13
2023-05-19T04:47:22.759Z,99097.72
2023-05-19T04:49:49.176Z,99101.59
2023-05-19T04:52:15.555Z,99097.38
2023-05-19T04:54:42.021Z,99112.44
2023-05-19T04:57:08.421Z,99100.09
2023-05-19T04:59:34.798Z,99094.31
2023-05-19T05:02:01.213Z,99096.47
2023-05-19T05:04:27.668Z,99097.22
2023-05-19T05:06:54.046Z,99094.91
2023-05-19T05:09:20.439Z,99082.88
2023-05-19T05:11:47.062Z,99085.88
2023-05-19T05:14:13.680Z,99099.00
2023-05-19T05:16:40.310Z,99080.41
2023-05-19T05:19:07.041Z,99076.06
2023-05-19T05:21:33.644Z,99097.19
2023-05-19T05:24:00.247Z,99094.00
2023-05-19T05:26:30.748Z,99087.63
2023-05-19T05:28:57.318Z,99094.84
2023-05-19T05:31:23.712Z,99077.75
2023-05-19T05:33:50.287Z,99092.38
2023-05-19T05:36:16.646Z,99102.34
2023-05-19T05:38:43.047Z,99085.97
2023-05-19T05:41:09.434Z,99092.19
2023-05-19T05:43:35.832Z,99100.38
2023-05-19T05:46:02.224Z,99101.69
2023-05-19T05:48:28.871Z,99101.91
2023-05-19T05:50:56.669Z,99107.22
2023-05-19T05:53:25.060Z,99104.00
2023-05-19T05:55:51.730Z,99102.78
2023-05-19T05:58:18.094Z,99087.06
2023-05-19T06:00:44.474Z,99103.28
2023-05-19T06:03:11.446Z,99099.47
2023-05-19T06:05:38.119Z,99102.97
2023-05-19T06:08:04.664Z,99112.81
2023-05-19T06:10:31.283Z,99106.06
2023-05-19T06:12:57.893Z,99096.44
2023-05-19T06:15:24.395Z,99106.97
2023-05-19T06:17:50.839Z,99101.03
2023-05-19T06:20:17.929Z,99104.22
2023-05-19T06:22:44.357Z,99102.91
2023-05-19T06:25:10.762Z,99108.16
2023-05-19T06:27:37.270Z,99116.91
2023-05-19T06:30:03.820Z,99108.31
2023-05-19T06:32:30.230Z,99097.00
2023-05-19T06:34:56.670Z,99108.78
2023-05-19T06:37:23.536Z,99111.28
2023-05-19T06:39:51.747Z,99122.31
2023-05-19T06:42:21.866Z,99103.94
2023-05-19T06:44:51.052Z,99105.09
2023-05-19T06:47:18.236Z,99097.22
2023-05-19T06:49:45.146Z,99106.59
2023-05-19T06:52:11.958Z,99111.16
2023-05-19T06:54:38.503Z,99105.16
2023-05-19T06:57:05.070Z,99101.97
2023-05-19T06:59:31.485Z,99088.44
2023-05-19T07:01:57.931Z,99110.78
2023-05-19T07:04:24.375Z,99101.66
2023-05-19T07:06:50.764Z,99100.31
2023-05-19T07:09:17.161Z,99101.31
2023-05-19T07:11:43.878Z,99113.06
2023-05-19T07:14:10.252Z,99104.81
2023-05-19T07:16:36.680Z,99085.16
2023-05-19T07:19:03.149Z,99102.81
2023-05-19T07:21:29.585Z,99080.38
2023-05-19T07:23:57.033Z,99092.72
2023-05-19T07:26:23.408Z,99080.56
2023-05-19T07:28:49.823Z,99089.34
2023-05-19T07:31:17.427Z,99089.88
2023-05-19T07:33:43.886Z,99086.19
2023-05-19T07:36:10.284Z,99083.66
2023-05-19T07:38:36.740Z,99087.59
2023-05-19T07:41:03.165Z,99087.06
2023-05-19T07:43:29.761Z,99061.53
2023-05-19T07:45:56.413Z,99080.31
2023-05-19T07:48:23.500Z,99060.94
2023-05-19T07:50:50.582Z,99085.06
2023-05-19T07:53:17.163Z,99076.34
2023-05-19T07:55:43.558Z,99083.09
2023-05-19T07:58:09.912Z,99080.34
2023-05-19T08:00:36.325Z,99084.09
2023-05-19T08:03:02.743Z,99076.22
2023-05-19T08:05:29.205Z,99074.50
2023-05-19T08:07:56.267Z,99079.09
2023-05-19T08:10:22.750Z,99077.38
2023-05-19T08:12:49.141Z,99079.75
2023-05-19T08:15:15.515Z,99072.03
2023-05-19T08:17:41.932Z,99077.16
2023-05-19T08:20:08.769Z,99076.31
2023-05-19T08:22:35.195Z,99066.38
2023-05-19T08:25:01.615Z,99067.72
2023-05-19T08:27:28.015Z,99068.09
2023-05-19T08:29:54.392Z,99064.19
2023-05-19T08:32:20.763Z,99064.13
2023-05-19T08:34:47.148Z,99068.09
2023-05-19T08:37:13.530Z,99064.13
2023-05-19T08:39:41.010Z,99056.56
2023-05-19T08:42:07.615Z,99059.84
2023-05-19T08:44:34.206Z,99066.78
2023-05-19T08:47:03.787Z,99059.44
2023-05-19T08:49:33.288Z,99061.19
2023-05-19T08:52:25.651Z,99053.28
2023-05-19T08:55:00.698Z,99052.09
2023-05-19T08:57:27.981Z,99042.28
2023-05-19T08:59:55.950Z,99042.59
2023-05-19T09:02:22.500Z,99056.38
2023-05-19T09:04:49.233Z,99043.09
2023-05-19T09:07:15.765Z,99051.47
2023-05-19T09:09:43.003Z,99032.50
2023-05-19T09:12:10.640Z,99047.75
2023-05-19T09:14:37.651Z,99036.13
2023-05-19T09:17:04.568Z,99018.38
2023-05-19T09:19:31.444Z,99027.34
2023-05-19T09:21:58.870Z,99022.06
2023-05-19T09:24:25.629Z,99014.13
2023-05-19T09:26:56.978Z,99024.00
2023-05-19T09:29:24.225Z,99021.63
2023-05-19T09:31:52.054Z,99021.56
2023-05-19T09:34:18.973Z,99019.22
2023-05-19T09:36:46.951Z,99025.16
2023-05-19T09:39:14.644Z,99013.41
2023-05-19T09:41:41.172Z,99016.63
2023-05-19T09:44:07.790Z,99013.25
2023-05-19T09:46:34.270Z,99003.94
2023-05-19T09:49:08.959Z,99016.13
2023-05-19T09:51:36.508Z,99012.66
2023-05-19T09:54:03.470Z,99005.78
2023-05-19T09:56:35.947Z,99017.38
2023-05-19T09:59:03.773Z,98991.69
2023-05-19T10:01:31.476Z,98999.03
2023-05-19T10:03:57.989Z,98986.78
2023-05-19T10:06:24.761Z,99019.63
2023-05-19T10:08:51.792Z,99010.50
2023-05-19T10:11:18.405Z,98997.13
2023-05-19T10:13:45.642Z,98987.94
2023-05-19T10:16:12.326Z,98971.06
2023-05-19T10:18:40.238Z,98986.78
2023-05-19T10:21:07.856Z,98973.38
2023-05-19T10:23:34.366Z,98981.41
2023-05-19T10:26:01.294Z,98978.53
2023-05-19T10:28:33.595Z,98979.81
2023-05-19T10:31:01.498Z,98975.94
2023-05-19T10:34:02.046Z,98975.00
2023-05-19T10:36:33.427Z,98978.19
2023-05-19T10:39:07.934Z,98957.97
2023-05-19T10:41:40.282Z,98981.22
2023-05-19T10:44:14.520Z,98969.94
2023-05-19T10:46:41.099Z,98958.88
2023-05-19T10:49:10.505Z,98961.75
2023-05-19T10:51:36.986Z,98962.13
2023-05-19T10:54:03.995Z,98959.16
2023-05-19T10:56:32.433Z,98957.03
2023-05-19T10:58:58.884Z,98956.94
2023-05-19T11:01:31.867Z,98954.22
2023-05-19T11:04:04.776Z,98958.81
2023-05-19T11:06:34.674Z,98952.22
2023-05-19T11:09:09.651Z,98960.63
2023-05-19T11:11:53.225Z,98970.25
2023-05-19T11:14:24.125Z,98967.38
2023-05-19T11:16:52.116Z,98955.19
2023-05-19T11:19:32.732Z,98955.53
2023-05-19T11:22:17.348Z,98953.38
2023-05-19T11:24:47.193Z,98953.94
2023-05-19T11:27:24.528Z,98959.38
2023-05-19T11:29:51.474Z,98941.75
2023-05-19T11:32:19.042Z,98942.31
2023-05-19T11:34:45.550Z,98946.91
2023-05-19T11:37:12.351Z,98938.88
2023-05-19T11:39:39.641Z,98930.81
2023-05-19T11:42:06.558Z,98939.63
2023-05-19T11:44:32.975Z,98941.91
2023-05-19T11:46:59.863Z,98919.59
2023-05-19T11:49:29.117Z,98929.22
2023-05-19T11:51:55.525Z,98932.69
2023-05-19T11:54:21.928Z,98926.94
2023-05-19T11:56:48.470Z,98933.09
2023-05-19T11:59:14.906Z,98930.31
2023-05-19T12:01:41.290Z,98935.41
2023-05-19T12:04:08.557Z,98932.31
2023-05-19T12:06:35.013Z,98930.06
2023-05-19T12:09:01.478Z,98917.06
2023-05-19T12:11:28.701Z,98941.56
2023-05-19T12:14:01.441Z,98937.34
2023-05-19T12:16:34.988Z,98934.69
2023-05-19T12:19:02.182Z,98936.22
2023-05-19T12:21:33.810Z,98923.97
2023-05-19T12:24:02.083Z,98936.56
2023-05-19T12:26:28.564Z,98941.91
2023-05-19T12:28:56.043Z,98923.06
2023-05-19T12:31:22.686Z,98938.38
2023-05-19T12:33:49.499Z,98940.69
2023-05-19T12:36:17.409Z,98937.63
2023-05-19T12:38:44.714Z,98933.41
2023-05-19T12:41:14.393Z,98913.47
2023-05-19T12:43:40.919Z,98930.00
2023-05-19T12:46:11.808Z,98926.06
2023-05-19T12:48:45.202Z,98930.63
2023-05-19T12:51:16.991Z,98931.47
2023-05-19T12:53:43.392Z,98923.84
2023-05-19T12:56:16.840Z,98919.97
2023-05-19T12:58:43.453Z,98929.91
2023-05-19T13:01:17.579Z,98913.78
2023-05-19T13:03:44.422Z,98915.25
2023-05-19T13:06:11.106Z,98924.44
2023-05-19T13:08:38.216Z,98916.06
2023-05-19T13:11:04.647Z,98921.41
2023-05-19T13:13:31.702Z,98925.19
2023-05-19T13:15:58.058Z,98925.22
2023-05-19T13:18:24.581Z,98928.88
2023-05-19T13:20:50.995Z,98906.78
2023-05-19T13:23:17.436Z,98915.09
2023-05-19T13:25:43.985Z,98911.66
2023-05-19T13:28:10.905Z,98911.09
2023-05-19T13:30:38.764Z,98908.53
2023-05-19T13:33:05.345Z,98905.53
2023-05-19T13:35:31.754Z,98898.94
2023-05-19T13:37:58.323Z,98907.03
2023-05-19T13:40:24.727Z,98892.47
2023-05-19T13:42:51.131Z,98899.31
2023-05-19T13:45:17.481Z,98896.00
2023-05-19T13:47:43.884Z,98902.50
2023-05-19T13:50:10.336Z,98911.28
2023-05-19T13:52:36.751Z,98904.81
2023-05-19T13:55:03.251Z,98883.34
2023-05-19T13:57:29.634Z,98892.53
2023-05-19T14:00:01.828Z,98895.44
2023-05-19T14:02:29.600Z,98888.28
2023-05-19T14:04:56.084Z,98890.28
2023-05-19T14:07:22.467Z,98883.84
2023-05-19T14:09:48.855Z,98896.19
2023-05-19T14:12:15.221Z,98880.41
2023-05-19T14:14:41.618Z,98888.75
2023-05-19T14:17:08.035Z,98890.06
2023-05-19T14:19:34.420Z,98892.06
2023-05-19T14:22:00.791Z,98888.63
2023-05-19T14:24:27.173Z,98882.88
2023-05-19T14:26:53.546Z,98883.97
2023-05-19T14:29:21.031Z,98897.47
2023-05-19T14:31:47.492Z,98884.09
2023-05-19T14:34:14.098Z,98882.47
2023-05-19T14:36:41.574Z,98887.34
2023-05-19T14:39:07.962Z,98884.66
2023-05-19T14:41:34.407Z,98887.75
2023-05-19T14:44:00.853Z,98900.16
2023-05-19T14:46:27.287Z,98883.28
2023-05-19T14:48:53.727Z,98875.28
2023-05-19T14:51:20.124Z,98895.44
2023-05-19T14:53:46.588Z,98906.09
2023-05-19T14:56:12.999Z,98909.97
2023-05-19T14:58:39.393Z,98899.34
2023-05-19T15:01:05.811Z,98909.34
2023-05-19T15:03:32.239Z,98908.56
2023-05-19T15:05:58.692Z,98903.97
2023-05-19T15:08:25.065Z,98902.44
2023-05-19T15:10:51.608Z,98913.19
2023-05-19T15:13:18.087Z,98907.88
2023-05-19T15:15:45.049Z,98917.78
2023-05-19T15:18:12.487Z,98907.88
2023-05-19T15:20:38.900Z,98909.34
2023-05-19T15:23:05.264Z,98884.78
2023-05-19T15:25:31.653Z,98904.41
2023-05-19T15:27:58.013Z,98907.03
2023-05-19T15:30:24.443Z,98919.34
2023-05-19T15:32:50.860Z,98910.53
2023-05-19T15:35:17.272Z,98916.31
2023-05-19T15:37:43.639Z,98907.09
2023-05-19T15:40:10.453Z,98911.72
2023-05-19T15:42:36.855Z,98913.25
2023-05-19T15:45:03.389Z,98909.81
2023-05-19T15:47:29.797Z,98916.28
2023-05-19T15:49:56.323Z,98907.88
2023-05-19T15:52:22.702Z,98912.47
2023-05-19T15:54:49.089Z,98902.53
2023-05-19T15:57:15.540Z,98907.50
2023-05-19T15:59:41.937Z,98925.50
2023-05-19T16:02:08.450Z,98919.38
2023-05-19T16:04:34.877Z,98907.09
2023-05-19T16:07:01.285Z,98914.78
2023-05-19T16:09:27.670Z,98908.66
2023-05-19T16:11:55.129Z,98912.09
2023-05-19T16:14:22.600Z,98904.78
2023-05-19T16:16:49.141Z,98909.41
2023-05-19T16:19:15.771Z,98916.31
2023-05-19T16:21:42.213Z,98914.78
2023-05-19T16:24:08.602Z,98902.53
2023-05-19T16:26:35.005Z,98906.34
2023-05-19T16:29:01.376Z,98910.16
2023-05-19T16:31:27.985Z,98900.19
2023-05-19T16:33:54.379Z,98909.34
2023-05-19T16:36:21.808Z,98912.81
2023-05-19T16:38:48.512Z,98910.19
2023-05-19T16:41:14.895Z,98901.75
2023-05-19T16:43:41.333Z,98882.97
2023-05-19T16:46:07.744Z,98905.56
2023-05-19T16:48:34.157Z,98912.47
2023-05-19T16:51:00.529Z,98904.03
2023-05-19T16:53:26.902Z,98896.38
2023-05-19T16:55:53.285Z,98896.75
2023-05-19T16:58:19.654Z,98885.25
2023-05-19T17:00:46.031Z,98891.00
2023-05-19T17:03:12.615Z,98904.78
2023-05-19T17:05:39.996Z,98891.75
2023-05-19T17:08:06.375Z,98877.97
2023-05-19T17:10:33.163Z,98900.16
2023-05-19T17:12:59.697Z,98886.31
2023-05-19T17:15:26.058Z,98886.63
2023-05-19T17:17:52.516Z,98908.81
2023-05-19T17:20:18.979Z,98900.31
2023-05-19T17:22:45.337Z,98905.28
2023-05-19T17:25:11.743Z,98911.13
2023-05-19T17:27:38.135Z,98906.88
2023-05-19T17:30:04.822Z,98910.25
2023-05-19T17:32:31.258Z,98914.50
2023-05-19T17:34:58.063Z,98908.75
2023-05-19T17:37:24.597Z,98912.84
2023-05-19T17:39:52.066Z,98906.34
2023-05-19T17:42:18.575Z,98918.59
2023-05-19T17:44:45.012Z,98921.56
2023-05-19T17:47:12.442Z,98929.56
2023-05-19T17:49:38.946Z,98924.94
2023-05-19T17:52:05.803Z,98922.50
2023-05-19T17:54:32.543Z,98933.97
2023-05-19T17:57:01.646Z,98934.63
2023-05-19T17:59:28.207Z,98931.50
2023-05-19T18:01:55.022Z,98929.94
2023-05-19T18:04:21.742Z,98932.09
2023-05-19T18:06:50.454Z,98935.53
2023-05-19T18:09:19.125Z,98941.22
2023-05-19T18:11:45.707Z,98921.34
2023-05-19T18:14:12.086Z,98934.41
2023-05-19T18:16:38.562Z,98938.81
2023-05-19T18:19:04.998Z,98940.28
2023-05-19T18:21:31.444Z,98947.09
2023-05-19T18:23:57.815Z,98939.09
2023-05-19T18:26:24.351Z,98945.47
2023-05-19T18:28:50.714Z,98948.66
2023-05-19T18:31:17.144Z,98942.09
2023-05-19T18:33:43.573Z,98927.88
2023-05-19T18:36:09.963Z,98938.59
2023-05-19T18:38:36.375Z,98938.56
2023-05-19T18:41:02.754Z,98937.44
2023-05-19T18:43:29.129Z,98925.25
2023-05-19T18:45:56.585Z,98945.97
2023-05-19T18:48:24.095Z,98940.94
2023-05-19T18:50:50.510Z,98952.75
2023-05-19T18:53:16.954Z,98945.78
2023-05-19T18:55:43.391Z,98944.94
2023-05-19T18:58:10.899Z,98951.38
2023-05-19T19:00:37.298Z,98934.56
2023-05-19T19:03:04.196Z,98947.78
2023-05-19T19:05:30.777Z,98944.25
2023-05-19T19:07:57.206Z,98924.56
2023-05-19T19:10:23.612Z,98947.53
2023-05-19T19:12:50.079Z,98951.25
2023-05-19T19:15:16.902Z,98955.38
2023-05-19T19:17:43.321Z,98952.97
2023-05-19T19:20:10.260Z,98960.19
2023-05-19T19:22:37.775Z,98959.34
2023-05-19T19:25:04.397Z,98961.44
2023-05-19T19:27:31.012Z,98965.13
2023-05-19T19:29:58.284Z,98948.53
2023-05-19T19:32:24.889Z,98960.41
2023-05-19T19:34:51.417Z,98963.34
2023-05-19T19:37:17.895Z,98950.59
2023-05-19T19:39:44.364Z,98952.59
2023-05-19T19:42:10.874Z,98951.25
2023-05-19T19:44:37.357Z,98953.28
2023-05-19T19:47:03.989Z,98956.28
2023-05-19T19:49:30.379Z,98965.38
2023-05-19T19:51:58.715Z,98952.47
2023-05-19T19:54:25.181Z,98951.72
2023-05-19T19:56:51.630Z,98961.59
2023-05-19T19:59:19.180Z,98953.97
2023-05-19T20:01:45.632Z,98963.25
2023-05-19T20:04:12.078Z,98960.78
2023-05-19T20:06:39.678Z,98950.91
2023-05-19T20:09:06.066Z,98964.06
2023-05-19T20:11:32.605Z,98960.16
2023-05-19T20:13:58.987Z,98963.63
2023-05-19T20:16:25.446Z,98947.16
2023-05-19T20:18:51.969Z,98967.16
2023-05-19T20:21:18.498Z,98965.63
2023-05-19T20:23:44.894Z,98957.31
2023-05-19T20:26:13.122Z,98954.31
2023-05-19T20:28:39.972Z,98944.41
2023-05-19T20:31:06.522Z,98958.88
2023-05-19T20:33:32.926Z,98956.97
2023-05-19T20:35:59.307Z,98962.31
2023-05-19T20:38:25.900Z,98949.75
2023-05-19T20:40:53.915Z,98956.19
2023-05-19T20:43:20.358Z,98961.22
2023-05-19T20:45:46.762Z,98939.66
2023-05-19T20:48:13.283Z,98950.44
2023-05-19T20:50:39.796Z,98958.50
2023-05-19T20:53:06.197Z,98958.84
2023-05-19T20:55:32.821Z,98968.41
2023-05-19T20:58:00.389Z,98971.06
2023-05-19T21:00:27.898Z,98961.81
2023-05-19T21:02:56.103Z,98955.63
2023-05-19T21:05:22.761Z,98964.31
2023-05-19T21:07:49.151Z,98971.06
2023-05-19T21:10:15.580Z,98962.63
2023-05-19T21:12:42.053Z,98970.63
2023-05-19T21:15:09.094Z,98967.19
2023-05-19T21:17:35.621Z,98952.69
2023-05-19T21:20:02.166Z,98958.88
2023-05-19T21:22:28.572Z,98958.72
2023-05-19T21:24:55.143Z,98949.53
2023-05-19T21:27:22.091Z,98954.97
2023-05-19T21:29:52.293Z,98948.63
2023-05-19T21:32:18.796Z,98959.06
2023-05-19T21:34:45.192Z,98939.94
2023-05-19T21:37:11.639Z,98958.72
2023-05-19T21:39:38.023Z,98967.38
2023-05-19T21:42:04.711Z,98959.72
2023-05-19T21:44:31.087Z,98957.53
2023-05-19T21:46:57.740Z,98959.72
2023-05-19T21:49:24.132Z,98952.34
2023-05-19T21:51:50.509Z,98947.81
2023-05-19T21:54:16.902Z,98959.94
2023-05-19T21:56:43.279Z,98950.34
2023-05-19T21:59:09.668Z,98963.75
2023-05-19T22:01:36.103Z,98966.81
2023-05-19T22:04:02.602Z,98966.47
2023-05-19T22:06:29.057Z,98965.91
2023-05-19T22:08:55.461Z,98957.91
2023-05-19T22:11:21.838Z,98958.22
2023-05-19T22:13:48.295Z,98957.53
2023-05-19T22:16:14.719Z,98962.41
2023-05-19T22:18:41.150Z,98959.06
2023-05-19T22:21:07.563Z,98943.22
2023-05-19T22:23:34.047Z,98958.91
2023-05-19T22:26:00.437Z,98966.91
2023-05-19T22:28:26.823Z,98961.94
2023-05-19T22:30:53.208Z,98955.84
2023-05-19T22:33:19.589Z,98957.28
2023-05-19T22:35:46.023Z,98948.63
2023-05-19T22:38:12.468Z,98953.19
2023-05-19T22:40:39.085Z,98933.50
2023-05-19T22:43:05.513Z,98948.00
2023-05-19T22:45:32.192Z,98933.28
2023-05-19T22:47:58.745Z,98953.06
2023-05-19T22:50:25.215Z,98959.06
2023-05-19T22:52:51.637Z,98960.97
2023-05-19T22:55:18.150Z,98954.03
2023-05-19T22:57:44.548Z,98960.38
2023-05-19T23:00:11.634Z,98952.47
2023-05-19T23:02:38.121Z,98937.50
2023-05-19T23:05:04.791Z,98953.03
2023-05-19T23:07:32.225Z,98964.19
2023-05-19T23:09:58.617Z,98970.56
2023-05-19T23:12:24.996Z,98949.75
2023-05-19T23:14:51.376Z,98972.63
2023-05-19T23:17:17.757Z,98966.41
2023-05-19T23:19:44.158Z,98968.72
2023-05-19T23:22:11.263Z,98963.72
2023-05-19T23:24:38.175Z,98970.25
2023-05-19T23:27:04.746Z,98960.16
2023-05-19T23:29:32.223Z,98966.19
2023-05-19T23:31:58.593Z,98962.03
2023-05-19T23:34:24.953Z,98946.97
2023-05-19T23:36:51.397Z,98956.03
2023-05-19T23:39:17.798Z,98956.63
2023-05-19T23:41:44.201Z,98927.38
2023-05-19T23:44:10.569Z,98947.88
2023-05-19T23:46:37.049Z,98954.91
2023-05-19T23:49:03.553Z,98946.69
2023-05-19T23:51:29.954Z,98948.16
2023-05-19T23:53:56.321Z,98947.88
2023-05-19T23:56:22.717Z,98935.03
2023-05-19T23:58:49.102Z,98928.94
